sensor_id;sensor_type;location;lat;lon;timestamp;P1;durP1;ratioP1;P2;durP2;ratioP2
17171;SDS011;8701;50.150;8.756;2023-07-30T00:00:42;7.93;;;3.43;;
17171;SDS011;8701;50.150;8.756;2023-07-30T00:04:45;4.70;;;2.80;;
17171;SDS011;8701;50.150;8.756;2023-07-30T00:08:49;3.07;;;2.60;;
17171;SDS011;8701;50.150;8.756;2023-07-30T00:12:51;2.70;;;2.20;;
17171;SDS011;8701;50.150;8.756;2023-07-30T00:16:53;3.40;;;2.73;;
17171;SDS011;8701;50.150;8.756;2023-07-30T00:20:55;3.63;;;2.60;;
17171;SDS011;8701;50.150;8.756;2023-07-30T00:24:59;2.53;;;2.33;;
17171;SDS011;8701;50.150;8.756;2023-07-30T00:29:01;5.03;;;2.60;;
17171;SDS011;8701;50.150;8.756;2023-07-30T00:33:04;3.13;;;2.83;;
17171;SDS011;8701;50.150;8.756;2023-07-30T00:37:06;10.50;;;3.17;;
17171;SDS011;8701;50.150;8.756;2023-07-30T00:41:09;4.00;;;2.60;;
17171;SDS011;8701;50.150;8.756;2023-07-30T00:45:12;3.00;;;2.70;;
17171;SDS011;8701;50.150;8.756;2023-07-30T00:49:14;8.60;;;2.60;;
17171;SDS011;8701;50.150;8.756;2023-07-30T00:53:16;5.13;;;2.90;;
17171;SDS011;8701;50.150;8.756;2023-07-30T00:57:24;3.80;;;2.73;;
17171;SDS011;8701;50.150;8.756;2023-07-30T01:01:27;3.40;;;3.10;;
17171;SDS011;8701;50.150;8.756;2023-07-30T01:05:32;4.10;;;2.90;;
17171;SDS011;8701;50.150;8.756;2023-07-30T01:09:35;4.03;;;2.67;;
17171;SDS011;8701;50.150;8.756;2023-07-30T01:13:39;3.10;;;2.90;;
17171;SDS011;8701;50.150;8.756;2023-07-30T01:17:41;11.57;;;3.27;;
17171;SDS011;8701;50.150;8.756;2023-07-30T01:21:45;3.67;;;3.03;;
17171;SDS011;8701;50.150;8.756;2023-07-30T01:25:47;4.47;;;2.60;;
17171;SDS011;8701;50.150;8.756;2023-07-30T01:29:57;3.17;;;2.97;;
17171;SDS011;8701;50.150;8.756;2023-07-30T01:34:05;4.50;;;3.00;;
17171;SDS011;8701;50.150;8.756;2023-07-30T01:38:10;3.93;;;2.60;;
17171;SDS011;8701;50.150;8.756;2023-07-30T01:42:12;7.37;;;2.70;;
17171;SDS011;8701;50.150;8.756;2023-07-30T01:46:15;3.23;;;2.40;;
17171;SDS011;8701;50.150;8.756;2023-07-30T01:50:17;6.00;;;2.20;;
17171;SDS011;8701;50.150;8.756;2023-07-30T01:54:21;2.57;;;2.37;;
17171;SDS011;8701;50.150;8.756;2023-07-30T01:58:23;2.83;;;2.63;;
17171;SDS011;8701;50.150;8.756;2023-07-30T02:02:25;4.30;;;2.30;;
17171;SDS011;8701;50.150;8.756;2023-07-30T02:06:28;3.30;;;2.13;;
17171;SDS011;8701;50.150;8.756;2023-07-30T02:10:31;2.87;;;2.67;;
17171;SDS011;8701;50.150;8.756;2023-07-30T02:14:34;2.97;;;2.67;;
17171;SDS011;8701;50.150;8.756;2023-07-30T02:18:36;2.60;;;2.37;;
17171;SDS011;8701;50.150;8.756;2023-07-30T02:22:38;3.27;;;2.77;;
17171;SDS011;8701;50.150;8.756;2023-07-30T02:26:42;4.77;;;2.80;;
17171;SDS011;8701;50.150;8.756;2023-07-30T02:30:44;2.80;;;2.50;;
17171;SDS011;8701;50.150;8.756;2023-07-30T02:34:47;4.00;;;2.80;;
17171;SDS011;8701;50.150;8.756;2023-07-30T02:38:49;6.43;;;2.53;;
17171;SDS011;8701;50.150;8.756;2023-07-30T02:42:53;4.50;;;2.57;;
17171;SDS011;8701;50.150;8.756;2023-07-30T02:46:55;2.83;;;2.60;;
17171;SDS011;8701;50.150;8.756;2023-07-30T02:50:57;4.83;;;2.67;;
17171;SDS011;8701;50.150;8.756;2023-07-30T02:54:59;3.60;;;3.00;;
17171;SDS011;8701;50.150;8.756;2023-07-30T02:59:03;6.53;;;2.50;;
17171;SDS011;8701;50.150;8.756;2023-07-30T03:03:06;3.10;;;2.90;;
17171;SDS011;8701;50.150;8.756;2023-07-30T03:07:09;4.60;;;3.50;;
17171;SDS011;8701;50.150;8.756;2023-07-30T03:11:11;3.60;;;3.30;;
17171;SDS011;8701;50.150;8.756;2023-07-30T03:15:15;11.13;;;3.80;;
17171;SDS011;8701;50.150;8.756;2023-07-30T03:19:17;7.13;;;3.93;;
17171;SDS011;8701;50.150;8.756;2023-07-30T03:23:21;4.00;;;3.60;;
17171;SDS011;8701;50.150;8.756;2023-07-30T03:27:23;4.63;;;3.70;;
17171;SDS011;8701;50.150;8.756;2023-07-30T03:31:26;4.10;;;3.70;;
17171;SDS011;8701;50.150;8.756;2023-07-30T03:35:29;8.57;;;3.93;;
17171;SDS011;8701;50.150;8.756;2023-07-30T03:39:31;4.13;;;3.10;;
17171;SDS011;8701;50.150;8.756;2023-07-30T03:43:34;3.63;;;3.20;;
17171;SDS011;8701;50.150;8.756;2023-07-30T03:47:38;3.67;;;3.00;;
17171;SDS011;8701;50.150;8.756;2023-07-30T03:51:40;3.50;;;3.20;;
17171;SDS011;8701;50.150;8.756;2023-07-30T03:55:43;3.43;;;3.13;;
17171;SDS011;8701;50.150;8.756;2023-07-30T03:59:45;4.00;;;3.13;;
17171;SDS011;8701;50.150;8.756;2023-07-30T04:03:48;2.70;;;2.50;;
17171;SDS011;8701;50.150;8.756;2023-07-30T04:07:50;5.30;;;3.47;;
17171;SDS011;8701;50.150;8.756;2023-07-30T04:11:53;9.73;;;3.20;;
17171;SDS011;8701;50.150;8.756;2023-07-30T04:15:55;3.30;;;2.57;;
17171;SDS011;8701;50.150;8.756;2023-07-30T04:19:59;4.33;;;3.43;;
17171;SDS011;8701;50.150;8.756;2023-07-30T04:24:02;3.90;;;3.00;;
17171;SDS011;8701;50.150;8.756;2023-07-30T04:28:04;3.77;;;3.30;;
17171;SDS011;8701;50.150;8.756;2023-07-30T04:32:06;4.87;;;3.70;;
17171;SDS011;8701;50.150;8.756;2023-07-30T04:36:10;4.23;;;3.60;;
17171;SDS011;8701;50.150;8.756;2023-07-30T04:40:12;7.20;;;3.03;;
17171;SDS011;8701;50.150;8.756;2023-07-30T04:44:15;3.20;;;3.00;;
17171;SDS011;8701;50.150;8.756;2023-07-30T04:48:17;10.30;;;2.97;;
17171;SDS011;8701;50.150;8.756;2023-07-30T04:52:21;3.87;;;3.57;;
17171;SDS011;8701;50.150;8.756;2023-07-30T04:56:23;4.30;;;3.70;;
17171;SDS011;8701;50.150;8.756;2023-07-30T05:00:27;3.17;;;2.80;;
17171;SDS011;8701;50.150;8.756;2023-07-30T05:04:29;4.40;;;2.43;;
17171;SDS011;8701;50.150;8.756;2023-07-30T05:08:33;2.90;;;2.67;;
17171;SDS011;8701;50.150;8.756;2023-07-30T05:12:35;3.53;;;2.57;;
17171;SDS011;8701;50.150;8.756;2023-07-30T05:16:37;2.80;;;2.43;;
17171;SDS011;8701;50.150;8.756;2023-07-30T05:20:39;2.43;;;2.23;;
17171;SDS011;8701;50.150;8.756;2023-07-30T05:24:43;3.60;;;2.20;;
17171;SDS011;8701;50.150;8.756;2023-07-30T05:28:45;4.70;;;2.47;;
17171;SDS011;8701;50.150;8.756;2023-07-30T05:32:47;2.70;;;2.50;;
17171;SDS011;8701;50.150;8.756;2023-07-30T05:36:49;2.73;;;2.53;;
17171;SDS011;8701;50.150;8.756;2023-07-30T05:40:53;3.03;;;2.70;;
17171;SDS011;8701;50.150;8.756;2023-07-30T05:44:55;4.13;;;2.63;;
17171;SDS011;8701;50.150;8.756;2023-07-30T05:48:57;4.27;;;2.60;;
17171;SDS011;8701;50.150;8.756;2023-07-30T05:53:00;2.10;;;1.93;;
17171;SDS011;8701;50.150;8.756;2023-07-30T05:57:04;1.90;;;1.70;;
17171;SDS011;8701;50.150;8.756;2023-07-30T06:01:06;2.00;;;1.90;;
17171;SDS011;8701;50.150;8.756;2023-07-30T06:05:08;3.27;;;2.03;;
17171;SDS011;8701;50.150;8.756;2023-07-30T06:09:10;1.80;;;1.70;;
17171;SDS011;8701;50.150;8.756;2023-07-30T06:13:14;1.93;;;1.63;;
17171;SDS011;8701;50.150;8.756;2023-07-30T06:17:16;2.60;;;1.70;;
17171;SDS011;8701;50.150;8.756;2023-07-30T06:21:18;2.07;;;1.87;;
17171;SDS011;8701;50.150;8.756;2023-07-30T06:25:21;3.10;;;2.00;;
17171;SDS011;8701;50.150;8.756;2023-07-30T06:29:24;3.10;;;1.70;;
17171;SDS011;8701;50.150;8.756;2023-07-30T06:33:27;4.17;;;2.00;;
17171;SDS011;8701;50.150;8.756;2023-07-30T06:37:29;1.70;;;1.60;;
17171;SDS011;8701;50.150;8.756;2023-07-30T06:41:31;2.93;;;1.90;;
17171;SDS011;8701;50.150;8.756;2023-07-30T06:45:35;1.90;;;1.50;;
17171;SDS011;8701;50.150;8.756;2023-07-30T06:49:38;2.83;;;1.73;;
17171;SDS011;8701;50.150;8.756;2023-07-30T06:53:40;5.70;;;2.20;;
17171;SDS011;8701;50.150;8.756;2023-07-30T06:57:42;1.90;;;1.80;;
17171;SDS011;8701;50.150;8.756;2023-07-30T07:01:46;1.97;;;1.73;;
17171;SDS011;8701;50.150;8.756;2023-07-30T07:05:52;3.23;;;1.73;;
17171;SDS011;8701;50.150;8.756;2023-07-30T07:09:54;3.13;;;1.57;;
17171;SDS011;8701;50.150;8.756;2023-07-30T07:13:57;2.10;;;1.90;;
17171;SDS011;8701;50.150;8.756;2023-07-30T07:18:00;2.37;;;1.60;;
17171;SDS011;8701;50.150;8.756;2023-07-30T07:22:03;4.20;;;1.43;;
17171;SDS011;8701;50.150;8.756;2023-07-30T07:26:05;1.60;;;1.50;;
17171;SDS011;8701;50.150;8.756;2023-07-30T07:30:09;5.10;;;2.10;;
17171;SDS011;8701;50.150;8.756;2023-07-30T07:34:13;2.50;;;1.53;;
17171;SDS011;8701;50.150;8.756;2023-07-30T07:38:15;4.07;;;1.50;;
17171;SDS011;8701;50.150;8.756;2023-07-30T07:42:19;1.80;;;1.40;;
17171;SDS011;8701;50.150;8.756;2023-07-30T07:46:21;1.97;;;1.50;;
17171;SDS011;8701;50.150;8.756;2023-07-30T07:50:25;1.90;;;1.80;;
17171;SDS011;8701;50.150;8.756;2023-07-30T07:54:27;1.73;;;1.63;;
17171;SDS011;8701;50.150;8.756;2023-07-30T07:58:30;1.80;;;1.50;;
17171;SDS011;8701;50.150;8.756;2023-07-30T08:02:33;2.40;;;1.50;;
17171;SDS011;8701;50.150;8.756;2023-07-30T08:06:36;2.07;;;1.37;;
17171;SDS011;8701;50.150;8.756;2023-07-30T08:10:39;2.07;;;1.50;;
17171;SDS011;8701;50.150;8.756;2023-07-30T08:14:44;1.60;;;1.50;;
17171;SDS011;8701;50.150;8.756;2023-07-30T08:18:46;4.80;;;1.73;;
17171;SDS011;8701;50.150;8.756;2023-07-30T08:22:49;3.10;;;1.60;;
17171;SDS011;8701;50.150;8.756;2023-07-30T08:26:52;2.70;;;1.70;;
17171;SDS011;8701;50.150;8.756;2023-07-30T08:30:59;1.93;;;1.83;;
17171;SDS011;8701;50.150;8.756;2023-07-30T08:35:01;2.30;;;1.30;;
17171;SDS011;8701;50.150;8.756;2023-07-30T08:39:05;1.93;;;1.73;;
17171;SDS011;8701;50.150;8.756;2023-07-30T08:43:07;1.50;;;1.40;;
17171;SDS011;8701;50.150;8.756;2023-07-30T08:47:10;2.20;;;1.63;;
17171;SDS011;8701;50.150;8.756;2023-07-30T08:51:12;1.80;;;1.50;;
17171;SDS011;8701;50.150;8.756;2023-07-30T08:55:17;1.80;;;1.40;;
17171;SDS011;8701;50.150;8.756;2023-07-30T08:59:20;4.83;;;1.60;;
17171;SDS011;8701;50.150;8.756;2023-07-30T09:03:24;1.37;;;1.27;;
17171;SDS011;8701;50.150;8.756;2023-07-30T09:07:28;1.80;;;1.60;;
17171;SDS011;8701;50.150;8.756;2023-07-30T09:11:32;3.60;;;1.40;;
17171;SDS011;8701;50.150;8.756;2023-07-30T09:15:35;3.20;;;1.30;;
17171;SDS011;8701;50.150;8.756;2023-07-30T09:19:38;2.03;;;1.77;;
17171;SDS011;8701;50.150;8.756;2023-07-30T09:23:41;3.13;;;2.00;;
17171;SDS011;8701;50.150;8.756;2023-07-30T09:27:47;1.50;;;1.40;;
17171;SDS011;8701;50.150;8.756;2023-07-30T09:31:49;2.10;;;1.50;;
17171;SDS011;8701;50.150;8.756;2023-07-30T09:35:54;4.70;;;1.97;;
17171;SDS011;8701;50.150;8.756;2023-07-30T09:39:57;1.63;;;1.53;;
17171;SDS011;8701;50.150;8.756;2023-07-30T09:44:01;2.83;;;1.90;;
17171;SDS011;8701;50.150;8.756;2023-07-30T09:48:05;1.93;;;1.83;;
17171;SDS011;8701;50.150;8.756;2023-07-30T09:52:08;4.50;;;2.20;;
17171;SDS011;8701;50.150;8.756;2023-07-30T09:56:11;2.00;;;1.77;;
17171;SDS011;8701;50.150;8.756;2023-07-30T10:00:15;7.80;;;1.40;;
17171;SDS011;8701;50.150;8.756;2023-07-30T10:04:18;4.57;;;1.77;;
17171;SDS011;8701;50.150;8.756;2023-07-30T10:08:23;6.23;;;1.40;;
17171;SDS011;8701;50.150;8.756;2023-07-30T10:12:28;3.93;;;1.43;;
17171;SDS011;8701;50.150;8.756;2023-07-30T10:16:35;2.00;;;1.80;;
17171;SDS011;8701;50.150;8.756;2023-07-30T10:20:37;2.67;;;1.80;;
17171;SDS011;8701;50.150;8.756;2023-07-30T10:24:40;1.83;;;1.30;;
17171;SDS011;8701;50.150;8.756;2023-07-30T10:29:12;1.83;;;1.50;;
17171;SDS011;8701;50.150;8.756;2023-07-30T10:33:17;3.37;;;1.53;;
17171;SDS011;8701;50.150;8.756;2023-07-30T10:37:20;4.30;;;1.10;;
17171;SDS011;8701;50.150;8.756;2023-07-30T10:41:24;2.60;;;1.07;;
17171;SDS011;8701;50.150;8.756;2023-07-30T10:45:26;2.70;;;1.20;;
17171;SDS011;8701;50.150;8.756;2023-07-30T10:49:30;3.23;;;1.03;;
17171;SDS011;8701;50.150;8.756;2023-07-30T10:53:38;2.43;;;1.13;;
17171;SDS011;8701;50.150;8.756;2023-07-30T10:57:43;1.67;;;1.07;;
17171;SDS011;8701;50.150;8.756;2023-07-30T11:01:47;2.17;;;1.20;;
17171;SDS011;8701;50.150;8.756;2023-07-30T11:05:50;2.20;;;1.10;;
17171;SDS011;8701;50.150;8.756;2023-07-30T11:09:59;3.00;;;1.30;;
17171;SDS011;8701;50.150;8.756;2023-07-30T11:14:02;1.43;;;1.17;;
17171;SDS011;8701;50.150;8.756;2023-07-30T11:18:05;2.70;;;1.10;;
17171;SDS011;8701;50.150;8.756;2023-07-30T11:22:09;3.17;;;1.10;;
17171;SDS011;8701;50.150;8.756;2023-07-30T11:26:13;3.97;;;1.37;;
17171;SDS011;8701;50.150;8.756;2023-07-30T11:30:18;2.13;;;1.30;;
17171;SDS011;8701;50.150;8.756;2023-07-30T11:34:20;1.93;;;1.30;;
17171;SDS011;8701;50.150;8.756;2023-07-30T11:38:24;2.77;;;1.20;;
17171;SDS011;8701;50.150;8.756;2023-07-30T11:42:28;2.30;;;1.50;;
17171;SDS011;8701;50.150;8.756;2023-07-30T11:46:31;3.00;;;1.33;;
17171;SDS011;8701;50.150;8.756;2023-07-30T11:50:43;5.20;;;1.30;;
17171;SDS011;8701;50.150;8.756;2023-07-30T11:55:00;4.40;;;1.93;;
17171;SDS011;8701;50.150;8.756;2023-07-30T11:59:04;3.43;;;1.40;;
17171;SDS011;8701;50.150;8.756;2023-07-30T12:03:09;4.70;;;1.70;;
17171;SDS011;8701;50.150;8.756;2023-07-30T12:07:21;7.70;;;1.53;;
17171;SDS011;8701;50.150;8.756;2023-07-30T12:11:26;5.93;;;1.50;;
17171;SDS011;8701;50.150;8.756;2023-07-30T12:15:28;2.43;;;1.70;;
17171;SDS011;8701;50.150;8.756;2023-07-30T12:19:31;6.30;;;1.57;;
17171;SDS011;8701;50.150;8.756;2023-07-30T12:23:33;9.43;;;1.50;;
17171;SDS011;8701;50.150;8.756;2023-07-30T12:27:37;2.20;;;1.50;;
17171;SDS011;8701;50.150;8.756;2023-07-30T12:31:39;3.60;;;1.60;;
17171;SDS011;8701;50.150;8.756;2023-07-30T12:35:42;4.60;;;1.97;;
17171;SDS011;8701;50.150;8.756;2023-07-30T12:39:44;3.73;;;1.50;;
17171;SDS011;8701;50.150;8.756;2023-07-30T12:43:47;2.37;;;1.50;;
17171;SDS011;8701;50.150;8.756;2023-07-30T12:47:50;5.47;;;1.60;;
17171;SDS011;8701;50.150;8.756;2023-07-30T12:51:52;3.00;;;1.43;;
17171;SDS011;8701;50.150;8.756;2023-07-30T12:55:54;3.13;;;1.47;;
17171;SDS011;8701;50.150;8.756;2023-07-30T12:59:58;2.83;;;1.30;;
17171;SDS011;8701;50.150;8.756;2023-07-30T13:04:00;3.90;;;1.30;;
17171;SDS011;8701;50.150;8.756;2023-07-30T13:08:02;6.43;;;1.37;;
17171;SDS011;8701;50.150;8.756;2023-07-30T13:12:05;1.73;;;1.10;;
17171;SDS011;8701;50.150;8.756;2023-07-30T13:16:09;8.30;;;2.13;;
17171;SDS011;8701;50.150;8.756;2023-07-30T13:20:11;2.00;;;1.20;;
17171;SDS011;8701;50.150;8.756;2023-07-30T13:24:13;5.57;;;1.60;;
17171;SDS011;8701;50.150;8.756;2023-07-30T13:28:15;4.60;;;1.57;;
17171;SDS011;8701;50.150;8.756;2023-07-30T13:32:19;5.33;;;1.53;;
17171;SDS011;8701;50.150;8.756;2023-07-30T13:36:21;6.73;;;1.97;;
17171;SDS011;8701;50.150;8.756;2023-07-30T13:40:23;6.47;;;1.80;;
17171;SDS011;8701;50.150;8.756;2023-07-30T13:44:26;3.93;;;1.40;;
17171;SDS011;8701;50.150;8.756;2023-07-30T13:48:30;6.20;;;1.97;;
17171;SDS011;8701;50.150;8.756;2023-07-30T13:52:32;4.77;;;1.40;;
17171;SDS011;8701;50.150;8.756;2023-07-30T13:56:34;4.83;;;1.37;;
17171;SDS011;8701;50.150;8.756;2023-07-30T14:00:40;3.67;;;1.20;;
17171;SDS011;8701;50.150;8.756;2023-07-30T14:04:44;4.00;;;1.93;;
17171;SDS011;8701;50.150;8.756;2023-07-30T14:08:46;3.30;;;1.23;;
17171;SDS011;8701;50.150;8.756;2023-07-30T14:12:49;4.20;;;1.60;;
17171;SDS011;8701;50.150;8.756;2023-07-30T14:16:51;3.80;;;1.23;;
17171;SDS011;8701;50.150;8.756;2023-07-30T14:20:55;3.80;;;1.80;;
17171;SDS011;8701;50.150;8.756;2023-07-30T14:24:57;3.27;;;1.40;;
17171;SDS011;8701;50.150;8.756;2023-07-30T14:28:59;5.27;;;1.80;;
17171;SDS011;8701;50.150;8.756;2023-07-30T14:33:01;4.17;;;1.57;;
17171;SDS011;8701;50.150;8.756;2023-07-30T14:37:05;2.63;;;1.60;;
17171;SDS011;8701;50.150;8.756;2023-07-30T14:41:07;2.77;;;1.30;;
17171;SDS011;8701;50.150;8.756;2023-07-30T14:45:10;2.73;;;1.40;;
17171;SDS011;8701;50.150;8.756;2023-07-30T14:49:12;5.87;;;1.63;;
17171;SDS011;8701;50.150;8.756;2023-07-30T14:53:15;2.50;;;0.97;;
17171;SDS011;8701;50.150;8.756;2023-07-30T14:57:18;3.67;;;1.20;;
17171;SDS011;8701;50.150;8.756;2023-07-30T15:01:21;3.67;;;1.50;;
17171;SDS011;8701;50.150;8.756;2023-07-30T15:05:23;3.30;;;1.40;;
17171;SDS011;8701;50.150;8.756;2023-07-30T15:09:27;4.83;;;1.57;;
17171;SDS011;8701;50.150;8.756;2023-07-30T15:13:34;5.57;;;1.53;;
17171;SDS011;8701;50.150;8.756;2023-07-30T15:17:36;9.03;;;1.67;;
17171;SDS011;8701;50.150;8.756;2023-07-30T15:21:38;4.40;;;1.40;;
17171;SDS011;8701;50.150;8.756;2023-07-30T15:25:42;3.43;;;1.50;;
17171;SDS011;8701;50.150;8.756;2023-07-30T15:29:44;3.50;;;1.30;;
17171;SDS011;8701;50.150;8.756;2023-07-30T15:33:46;6.50;;;1.70;;
17171;SDS011;8701;50.150;8.756;2023-07-30T15:37:48;2.13;;;1.50;;
17171;SDS011;8701;50.150;8.756;2023-07-30T15:41:53;2.93;;;1.70;;
17171;SDS011;8701;50.150;8.756;2023-07-30T15:45:55;4.73;;;1.80;;
17171;SDS011;8701;50.150;8.756;2023-07-30T15:50:02;3.40;;;1.40;;
17171;SDS011;8701;50.150;8.756;2023-07-30T15:54:05;4.83;;;1.97;;
17171;SDS011;8701;50.150;8.756;2023-07-30T15:58:09;5.37;;;1.83;;
17171;SDS011;8701;50.150;8.756;2023-07-30T16:02:11;4.03;;;1.70;;
17171;SDS011;8701;50.150;8.756;2023-07-30T16:06:13;6.50;;;1.70;;
17171;SDS011;8701;50.150;8.756;2023-07-30T16:10:15;3.00;;;1.40;;
17171;SDS011;8701;50.150;8.756;2023-07-30T16:14:19;4.23;;;2.17;;
17171;SDS011;8701;50.150;8.756;2023-07-30T16:18:23;3.20;;;1.30;;
17171;SDS011;8701;50.150;8.756;2023-07-30T16:22:25;3.30;;;1.50;;
17171;SDS011;8701;50.150;8.756;2023-07-30T16:26:27;5.37;;;1.93;;
17171;SDS011;8701;50.150;8.756;2023-07-30T16:30:30;7.60;;;1.60;;
17171;SDS011;8701;50.150;8.756;2023-07-30T16:34:33;4.33;;;1.30;;
17171;SDS011;8701;50.150;8.756;2023-07-30T16:38:35;3.80;;;1.63;;
17171;SDS011;8701;50.150;8.756;2023-07-30T16:42:37;7.43;;;1.40;;
17171;SDS011;8701;50.150;8.756;2023-07-30T16:46:41;3.87;;;1.40;;
17171;SDS011;8701;50.150;8.756;2023-07-30T16:50:46;2.57;;;1.40;;
17171;SDS011;8701;50.150;8.756;2023-07-30T16:54:48;3.70;;;1.40;;
17171;SDS011;8701;50.150;8.756;2023-07-30T16:58:51;2.80;;;1.30;;
17171;SDS011;8701;50.150;8.756;2023-07-30T17:02:54;5.53;;;2.00;;
17171;SDS011;8701;50.150;8.756;2023-07-30T17:06:57;2.90;;;1.70;;
17171;SDS011;8701;50.150;8.756;2023-07-30T17:11:02;3.10;;;1.50;;
17171;SDS011;8701;50.150;8.756;2023-07-30T17:15:06;2.60;;;1.40;;
17171;SDS011;8701;50.150;8.756;2023-07-30T17:19:10;1.83;;;1.40;;
17171;SDS011;8701;50.150;8.756;2023-07-30T17:23:12;7.20;;;1.80;;
17171;SDS011;8701;50.150;8.756;2023-07-30T17:27:14;2.30;;;1.30;;
17171;SDS011;8701;50.150;8.756;2023-07-30T17:31:17;2.40;;;1.40;;
17171;SDS011;8701;50.150;8.756;2023-07-30T17:35:20;4.03;;;1.47;;
17171;SDS011;8701;50.150;8.756;2023-07-30T17:39:22;3.43;;;1.63;;
17171;SDS011;8701;50.150;8.756;2023-07-30T17:43:25;5.67;;;1.53;;
17171;SDS011;8701;50.150;8.756;2023-07-30T17:47:27;4.87;;;1.43;;
17171;SDS011;8701;50.150;8.756;2023-07-30T17:51:31;2.30;;;1.73;;
17171;SDS011;8701;50.150;8.756;2023-07-30T17:55:33;4.73;;;1.60;;
17171;SDS011;8701;50.150;8.756;2023-07-30T17:59:35;2.50;;;1.60;;
17171;SDS011;8701;50.150;8.756;2023-07-30T18:03:37;3.90;;;1.50;;
17171;SDS011;8701;50.150;8.756;2023-07-30T18:07:41;3.73;;;1.40;;
17171;SDS011;8701;50.150;8.756;2023-07-30T18:11:43;2.63;;;1.60;;
17171;SDS011;8701;50.150;8.756;2023-07-30T18:15:46;4.50;;;1.73;;
17171;SDS011;8701;50.150;8.756;2023-07-30T18:19:48;4.63;;;2.03;;
17171;SDS011;8701;50.150;8.756;2023-07-30T18:23:52;3.97;;;1.63;;
17171;SDS011;8701;50.150;8.756;2023-07-30T18:27:54;2.50;;;1.30;;
17171;SDS011;8701;50.150;8.756;2023-07-30T18:32:03;1.73;;;1.37;;
17171;SDS011;8701;50.150;8.756;2023-07-30T18:36:06;11.00;;;1.93;;
17171;SDS011;8701;50.150;8.756;2023-07-30T18:40:11;3.70;;;1.47;;
17171;SDS011;8701;50.150;8.756;2023-07-30T18:44:13;2.90;;;1.57;;
17171;SDS011;8701;50.150;8.756;2023-07-30T18:48:15;3.57;;;1.67;;
17171;SDS011;8701;50.150;8.756;2023-07-30T18:52:19;5.53;;;2.40;;
17171;SDS011;8701;50.150;8.756;2023-07-30T18:56:23;2.30;;;1.50;;
17171;SDS011;8701;50.150;8.756;2023-07-30T19:00:25;3.33;;;1.47;;
17171;SDS011;8701;50.150;8.756;2023-07-30T19:04:27;4.30;;;1.50;;
17171;SDS011;8701;50.150;8.756;2023-07-30T19:08:30;3.80;;;1.60;;
17171;SDS011;8701;50.150;8.756;2023-07-30T19:12:33;6.90;;;1.67;;
17171;SDS011;8701;50.150;8.756;2023-07-30T19:16:35;2.33;;;1.50;;
17171;SDS011;8701;50.150;8.756;2023-07-30T19:20:38;3.80;;;1.67;;
17171;SDS011;8701;50.150;8.756;2023-07-30T19:24:40;3.87;;;2.03;;
17171;SDS011;8701;50.150;8.756;2023-07-30T19:28:44;2.50;;;1.50;;
17171;SDS011;8701;50.150;8.756;2023-07-30T19:32:46;3.77;;;2.03;;
17171;SDS011;8701;50.150;8.756;2023-07-30T19:36:49;3.73;;;1.73;;
17171;SDS011;8701;50.150;8.756;2023-07-30T19:40:51;4.10;;;1.87;;
17171;SDS011;8701;50.150;8.756;2023-07-30T19:44:56;3.07;;;2.00;;
17171;SDS011;8701;50.150;8.756;2023-07-30T19:48:58;2.63;;;1.70;;
17171;SDS011;8701;50.150;8.756;2023-07-30T19:53:01;4.97;;;1.47;;
17171;SDS011;8701;50.150;8.756;2023-07-30T19:57:03;4.63;;;2.90;;
17171;SDS011;8701;50.150;8.756;2023-07-30T20:01:07;7.97;;;1.90;;
17171;SDS011;8701;50.150;8.756;2023-07-30T20:05:09;5.47;;;1.97;;
17171;SDS011;8701;50.150;8.756;2023-07-30T20:09:14;5.07;;;1.50;;
17171;SDS011;8701;50.150;8.756;2023-07-30T20:13:17;4.77;;;1.87;;
17171;SDS011;8701;50.150;8.756;2023-07-30T20:17:20;3.33;;;1.80;;
17171;SDS011;8701;50.150;8.756;2023-07-30T20:21:22;4.60;;;2.10;;
17171;SDS011;8701;50.150;8.756;2023-07-30T20:25:25;3.43;;;1.63;;
17171;SDS011;8701;50.150;8.756;2023-07-30T20:29:27;6.00;;;1.97;;
17171;SDS011;8701;50.150;8.756;2023-07-30T20:33:30;4.63;;;1.50;;
17171;SDS011;8701;50.150;8.756;2023-07-30T20:37:33;9.00;;;2.40;;
17171;SDS011;8701;50.150;8.756;2023-07-30T20:41:36;5.20;;;2.00;;
17171;SDS011;8701;50.150;8.756;2023-07-30T20:45:38;3.97;;;2.00;;
17171;SDS011;8701;50.150;8.756;2023-07-30T20:49:41;4.63;;;1.70;;
17171;SDS011;8701;50.150;8.756;2023-07-30T20:53:44;7.67;;;1.77;;
17171;SDS011;8701;50.150;8.756;2023-07-30T20:57:46;6.10;;;1.77;;
17171;SDS011;8701;50.150;8.756;2023-07-30T21:01:48;8.53;;;1.90;;
17171;SDS011;8701;50.150;8.756;2023-07-30T21:05:52;8.70;;;1.57;;
17171;SDS011;8701;50.150;8.756;2023-07-30T21:09:54;6.60;;;1.93;;
17171;SDS011;8701;50.150;8.756;2023-07-30T21:13:56;4.33;;;1.40;;
17171;SDS011;8701;50.150;8.756;2023-07-30T21:17:59;5.03;;;1.83;;
17171;SDS011;8701;50.150;8.756;2023-07-30T21:22:03;3.93;;;1.70;;
17171;SDS011;8701;50.150;8.756;2023-07-30T21:26:05;5.40;;;1.70;;
17171;SDS011;8701;50.150;8.756;2023-07-30T21:30:07;3.87;;;1.40;;
17171;SDS011;8701;50.150;8.756;2023-07-30T21:34:10;5.17;;;1.80;;
17171;SDS011;8701;50.150;8.756;2023-07-30T21:38:13;3.20;;;1.50;;
17171;SDS011;8701;50.150;8.756;2023-07-30T21:42:15;3.40;;;1.50;;
17171;SDS011;8701;50.150;8.756;2023-07-30T21:46:18;2.23;;;1.27;;
17171;SDS011;8701;50.150;8.756;2023-07-30T21:50:20;5.50;;;1.70;;
17171;SDS011;8701;50.150;8.756;2023-07-30T21:54:23;2.30;;;1.50;;
17171;SDS011;8701;50.150;8.756;2023-07-30T21:58:25;3.37;;;1.53;;
17171;SDS011;8701;50.150;8.756;2023-07-30T22:02:28;4.60;;;1.53;;
17171;SDS011;8701;50.150;8.756;2023-07-30T22:06:30;3.10;;;1.60;;
17171;SDS011;8701;50.150;8.756;2023-07-30T22:10:37;6.67;;;2.20;;
17171;SDS011;8701;50.150;8.756;2023-07-30T22:14:41;5.20;;;1.90;;
17171;SDS011;8701;50.150;8.756;2023-07-30T22:18:43;7.50;;;1.87;;
17171;SDS011;8701;50.150;8.756;2023-07-30T22:22:45;3.63;;;1.63;;
17171;SDS011;8701;50.150;8.756;2023-07-30T22:26:49;3.93;;;2.13;;
17171;SDS011;8701;50.150;8.756;2023-07-30T22:30:51;7.10;;;1.80;;
17171;SDS011;8701;50.150;8.756;2023-07-30T22:34:54;4.27;;;1.60;;
17171;SDS011;8701;50.150;8.756;2023-07-30T22:38:56;6.03;;;2.43;;
17171;SDS011;8701;50.150;8.756;2023-07-30T22:43:01;7.80;;;1.90;;
17171;SDS011;8701;50.150;8.756;2023-07-30T22:47:03;3.70;;;1.57;;
17171;SDS011;8701;50.150;8.756;2023-07-30T22:51:05;5.73;;;1.70;;
17171;SDS011;8701;50.150;8.756;2023-07-30T22:55:08;1.90;;;1.70;;
17171;SDS011;8701;50.150;8.756;2023-07-30T23:03:13;6.77;;;1.67;;
17171;SDS011;8701;50.150;8.756;2023-07-30T23:07:16;5.10;;;1.63;;
17171;SDS011;8701;50.150;8.756;2023-07-30T23:11:18;3.00;;;1.80;;
17171;SDS011;8701;50.150;8.756;2023-07-30T23:15:21;3.70;;;1.67;;
17171;SDS011;8701;50.150;8.756;2023-07-30T23:19:24;8.83;;;2.13;;
17171;SDS011;8701;50.150;8.756;2023-07-30T23:23:26;9.00;;;1.90;;
17171;SDS011;8701;50.150;8.756;2023-07-30T23:27:28;3.93;;;1.90;;
17171;SDS011;8701;50.150;8.756;2023-07-30T23:31:32;5.90;;;1.77;;
17171;SDS011;8701;50.150;8.756;2023-07-30T23:35:34;4.60;;;1.73;;
17171;SDS011;8701;50.150;8.756;2023-07-30T23:39:36;4.93;;;2.50;;
17171;SDS011;8701;50.150;8.756;2023-07-30T23:43:39;2.90;;;1.60;;
17171;SDS011;8701;50.150;8.756;2023-07-30T23:47:42;2.60;;;1.50;;
17171;SDS011;8701;50.150;8.756;2023-07-30T23:51:46;4.87;;;2.17;;
17171;SDS011;8701;50.150;8.756;2023-07-30T23:55:48;3.93;;;1.60;;
17171;SDS011;8701;50.150;8.756;2023-07-30T23:59:50;9.83;;;2.37;;
